Time;durP1;ratioP1;P1;durP2;ratioP2;P2;SDS_P1;SDS_P2;PMS_P1;PMS_P2;Temp;Humidity;BMP_temperature;BMP_pressure;BME280_temperature;BME280_humidity;BME280_pressure;Samples;Min_cycle;Max_cycle;Signal;HPM_P1;HPM_P2
2023/04/17 00:00:24;;;;;;;;;;;;;;;-140.72;100.00;52922.53;5035470;28;19959;-71
2023/04/17 00:02:50;;;;;;;;;;;;;;;-140.72;100.00;52853.53;5026017;28;19921;-71
2023/04/17 00:05:15;;;;;;;;;;;;;;;-140.72;100.00;52869.75;5039919;28;19932;-71
2023/04/17 00:07:40;;;;;;;;;;;;;;;-140.72;100.00;52873.81;5026971;28;19925;-70
2023/04/17 00:10:09;;;;;;;;;;;;;;;-140.72;100.00;52883.97;5032077;28;19925;-70
2023/04/17 00:12:35;;;;;;;;;;;;;;;-140.72;100.00;52910.34;5038614;28;19922;-70
2023/04/17 00:15:00;;;;;;;;;;;;;;;-140.72;100.00;52877.88;5034391;28;19918;-71
2023/04/17 00:17:26;;;;;;;;;;;;;;;-140.72;100.00;52890.06;5018496;28;19943;-71
2023/04/17 00:19:51;;;;;;;;;;;;;;;-140.72;100.00;52883.97;5028812;28;19932;-71
2023/04/17 00:22:16;;;;;;;;;;;;;;;-140.72;100.00;52894.13;5034093;28;19924;-70
2023/04/17 00:24:42;;;;;;;;;;;;;;;-140.72;100.00;52881.94;5023610;28;20368;-70
2023/04/17 00:27:07;;;;;;;;;;;;;;;-140.72;100.00;52904.25;5046698;28;20417;-70
2023/04/17 00:29:33;;;;;;;;;;;;;;;-140.72;100.00;52922.53;5031834;28;19921;-71
2023/04/17 00:31:58;;;;;;;;;;;;;;;-140.72;100.00;52873.81;5029519;28;19921;-71
2023/04/17 00:34:23;;;;;;;;;;;;;;;-140.72;100.00;52877.88;5027540;28;19933;-71
2023/04/17 00:36:48;;;;;;;;;;;;;;;-140.72;100.00;52906.28;5033973;28;19917;-70
2023/04/17 00:39:14;;;;;;;;;;;;;;;-140.72;100.00;52904.25;5029239;28;19921;-70
2023/04/17 00:41:39;;;;;;;;;;;;;;;-140.72;100.00;52892.09;5024858;28;19924;-70
2023/04/17 00:44:05;;;;;;;;;;;;;;;-140.72;100.00;52902.22;5025621;28;19929;-71
2023/04/17 00:46:31;;;;;;;;;;;;;;;-140.72;100.00;52871.78;5028156;28;19917;-70
2023/04/17 00:48:56;;;;;;;;;;;;;;;-140.72;100.00;52914.41;5024682;28;19929;-72
2023/04/17 00:51:21;;;;;;;;;;;;;;;-140.72;100.00;52908.31;5026304;28;19924;-70
2023/04/17 00:53:47;;;;;;;;;;;;;;;-140.72;100.00;52908.31;5025432;28;20012;-70
2023/04/17 00:56:12;;;;;;;;;;;;;;;-140.72;100.00;52896.16;5022647;28;19917;-70
2023/04/17 00:58:39;;;;;;;;;;;;;;;-140.72;100.00;52908.31;5030404;28;19921;-70
2023/04/17 01:01:05;;;;;;;;;;;;;;;-140.72;100.00;52898.16;5031822;28;19956;-70
2023/04/17 01:03:30;;;;;;;;;;;;;;;-140.72;100.00;52892.09;5036640;28;19959;-70
2023/04/17 01:05:56;;;;;;;;;;;;;;;-140.72;100.00;52910.34;5030149;28;19928;-70
2023/04/17 01:08:21;;;;;;;;;;;;;;;-140.72;100.00;52924.56;5033399;28;19925;-70
2023/04/17 01:10:46;;;;;;;;;;;;;;;-140.72;100.00;52904.25;5025512;28;20296;-71
2023/04/17 01:13:11;;;;;;;;;;;;;;;-140.72;100.00;52938.75;5031560;28;19921;-70
2023/04/17 01:15:37;;;;;;;;;;;;;;;-140.72;100.00;52926.59;5024580;28;19921;-70
2023/04/17 01:18:02;;;;;;;;;;;;;;;-140.72;100.00;52904.25;5024596;28;19928;-71
2023/04/17 01:20:31;;;;;;;;;;;;;;;-140.72;100.00;52912.38;5030643;28;19928;-71
2023/04/17 01:22:59;;;;;;;;;;;;;;;-140.72;100.00;52890.06;5034836;28;19921;-70
2023/04/17 01:25:25;;;;;;;;;;;;;;;-140.72;100.00;52910.34;5030786;28;19932;-71
2023/04/17 01:27:50;;;;;;;;;;;;;;;-140.72;100.00;52924.56;5032059;28;19921;-71
2023/04/17 01:30:16;;;;;;;;;;;;;;;-140.72;100.00;52888.03;5028255;28;19963;-71
2023/04/17 01:32:41;;;;;;;;;;;;;;;-140.72;100.00;52912.38;5030594;28;19932;-71
2023/04/17 01:35:06;;;;;;;;;;;;;;;-140.72;100.00;52886.00;5030051;28;19966;-71
2023/04/17 01:37:32;;;;;;;;;;;;;;;-140.72;100.00;52918.47;5022660;28;19921;-71
2023/04/17 01:39:57;;;;;;;;;;;;;;;-140.72;100.00;52857.59;5019099;28;19918;-71
2023/04/17 01:42:23;;;;;;;;;;;;;;;-140.72;100.00;52928.63;5024328;28;19951;-70
2023/04/17 01:44:48;;;;;;;;;;;;;;;-140.72;100.00;52924.56;5024111;28;19928;-70
2023/04/17 01:47:13;;;;;;;;;;;;;;;-140.72;100.00;52928.63;5024560;28;19967;-71
2023/04/17 01:49:38;;;;;;;;;;;;;;;-140.72;100.00;52896.16;5029728;28;19917;-70
2023/04/17 01:52:04;;;;;;;;;;;;;;;-140.72;100.00;52920.50;5025754;28;19921;-70
2023/04/17 01:54:29;;;;;;;;;;;;;;;-140.72;100.00;52883.97;5037566;28;19952;-70
2023/04/17 01:56:55;;;;;;;;;;;;;;;-140.72;100.00;52890.06;5019767;28;19922;-70
2023/04/17 01:59:21;;;;;;;;;;;;;;;-140.72;100.00;52946.88;5025781;28;19925;-71
2023/04/17 02:01:46;;;;;;;;;;;;;;;-140.72;100.00;52883.97;5025709;28;20331;-71
2023/04/17 02:04:12;;;;;;;;;;;;;;;-140.72;100.00;52886.00;5032439;28;19936;-70
2023/04/17 02:06:44;;;;;;;;;;;;;;;-140.72;100.00;52926.59;5026533;28;19929;-70
2023/04/17 02:09:09;;;;;;;;;;;;;;;-140.72;100.00;52926.59;5024397;28;20390;-70
2023/04/17 02:11:38;;;;;;;;;;;;;;;-140.72;100.00;52890.06;5023388;27;19926;-71
2023/04/17 02:14:03;;;;;;;;;;;;;;;-140.72;100.00;52914.41;5027254;28;20300;-71
2023/04/17 02:16:30;;;;;;;;;;;;;;;-140.72;100.00;52922.53;5029292;28;19921;-71
2023/04/17 02:18:55;;;;;;;;;;;;;;;-140.72;100.00;52930.66;5025172;28;19929;-71
2023/04/17 02:21:21;;;;;;;;;;;;;;;-140.72;100.00;52886.00;5025983;28;20115;-70
2023/04/17 02:26:49;;;;;;;;;;;;;;;-140.72;100.00;52900.19;5025471;28;19924;-71
2023/04/17 02:29:37;;;;;;;;;;;;;;;-140.72;100.00;52948.91;5038041;28;19921;-71
2023/04/17 02:32:02;;;;;;;;;;;;;;;-140.72;100.00;52940.78;5020531;28;19928;-71
2023/04/17 02:34:27;;;;;;;;;;;;;;;-140.72;100.00;52914.41;5028119;28;19921;-71
2023/04/17 02:36:52;;;;;;;;;;;;;;;-140.72;100.00;52883.97;5029112;28;20303;-71
2023/04/17 02:39:18;;;;;;;;;;;;;;;-140.72;100.00;52898.16;5028842;28;20378;-71
2023/04/17 02:41:43;;;;;;;;;;;;;;;-140.72;100.00;52922.53;5029667;28;19924;-70
2023/04/17 02:44:27;;;;;;;;;;;;;;;-140.72;100.00;52910.34;5023241;28;20367;-70
2023/04/17 02:46:52;;;;;;;;;;;;;;;-140.72;100.00;52938.75;5032313;27;19943;-70
2023/04/17 02:49:20;;;;;;;;;;;;;;;-140.72;100.00;52918.47;5026175;27;19925;-70
2023/04/17 02:51:45;;;;;;;;;;;;;;;-140.72;100.00;52924.56;5014784;28;20290;-70
2023/04/17 02:54:24;;;;;;;;;;;;;;;-140.72;100.00;52928.63;5076605;27;20010;-70
2023/04/17 02:56:49;;;;;;;;;;;;;;;-140.72;100.00;52906.28;5044332;27;20014;-70
2023/04/17 02:59:15;;;;;;;;;;;;;;;-140.72;100.00;52944.84;5031480;28;19921;-70
2023/04/17 03:01:41;;;;;;;;;;;;;;;-140.72;100.00;52918.47;5041898;28;20126;-70
2023/04/17 03:04:06;;;;;;;;;;;;;;;-140.72;100.00;52910.34;5018624;28;19928;-70
2023/04/17 03:06:31;;;;;;;;;;;;;;;-140.72;100.00;52918.47;5029646;28;19925;-70
2023/04/17 03:08:56;;;;;;;;;;;;;;;-140.72;100.00;52924.56;5031245;28;19917;-70
2023/04/17 03:11:22;;;;;;;;;;;;;;;-140.72;100.00;52944.84;5027528;28;19921;-70
2023/04/17 03:13:47;;;;;;;;;;;;;;;-140.72;100.00;52914.41;5020240;28;19921;-70
2023/04/17 03:16:12;;;;;;;;;;;;;;;-140.72;100.00;52932.66;5030885;28;20375;-70
2023/04/17 03:18:38;;;;;;;;;;;;;;;-140.72;100.00;52930.66;5025338;28;19932;-70
2023/04/17 03:21:03;;;;;;;;;;;;;;;-140.72;100.00;52898.16;5095481;27;20388;-70
2023/04/17 03:23:29;;;;;;;;;;;;;;;-140.72;100.00;52902.22;5022006;28;20004;-71
2023/04/17 03:25:54;;;;;;;;;;;;;;;-140.72;100.00;52918.47;5028556;28;19949;-71
2023/04/17 03:28:20;;;;;;;;;;;;;;;-140.72;100.00;52946.88;5031075;28;19952;-71
2023/04/17 03:30:46;;;;;;;;;;;;;;;-140.72;100.00;52926.59;5033092;28;19928;-71
2023/04/17 03:33:11;;;;;;;;;;;;;;;-140.72;100.00;52910.34;5031847;28;19921;-71
2023/04/17 03:35:36;;;;;;;;;;;;;;;-140.72;100.00;52926.59;5020033;28;20039;-71
2023/04/17 03:38:01;;;;;;;;;;;;;;;-140.72;100.00;52955.00;5029836;28;20030;-71
2023/04/17 03:40:27;;;;;;;;;;;;;;;-140.72;100.00;52930.66;5026229;28;19917;-70
2023/04/17 03:42:52;;;;;;;;;;;;;;;-140.72;100.00;52930.66;5020846;28;20008;-70
2023/04/17 03:45:17;;;;;;;;;;;;;;;-140.72;100.00;52912.38;5024056;28;20055;-70
2023/04/17 03:47:42;;;;;;;;;;;;;;;-140.72;100.00;52914.41;5014090;28;19917;-70
2023/04/17 03:50:08;;;;;;;;;;;;;;;-140.72;100.00;52959.06;5026135;28;19917;-70
2023/04/17 03:52:33;;;;;;;;;;;;;;;-140.72;100.00;52944.84;5014996;28;19917;-70
2023/04/17 03:54:58;;;;;;;;;;;;;;;-140.72;100.00;52946.88;5023979;28;19927;-70
2023/04/17 03:57:23;;;;;;;;;;;;;;;-140.72;100.00;52934.69;5021220;28;20025;-70
2023/04/17 03:59:49;;;;;;;;;;;;;;;-140.72;100.00;52973.25;5019210;28;19917;-70
2023/04/17 04:02:14;;;;;;;;;;;;;;;-140.72;100.00;52910.34;5023462;28;19925;-70
2023/04/17 04:04:39;;;;;;;;;;;;;;;-140.72;100.00;52869.75;5031435;28;19946;-70
2023/04/17 04:07:05;;;;;;;;;;;;;;;-140.72;100.00;52930.66;5026798;28;20024;-71
2023/04/17 04:09:30;;;;;;;;;;;;;;;-140.72;100.00;52930.66;5023872;28;19917;-70
2023/04/17 04:11:56;;;;;;;;;;;;;;;-140.72;100.00;52904.25;5020194;28;19961;-71
2023/04/17 04:14:21;;;;;;;;;;;;;;;-140.72;100.00;52902.22;5030082;28;19978;-71
2023/04/17 04:16:47;;;;;;;;;;;;;;;-140.72;100.00;52869.75;5027138;28;19939;-71
2023/04/17 04:19:12;;;;;;;;;;;;;;;-140.72;100.00;52906.28;5027956;28;19924;-73
2023/04/17 04:21:37;;;;;;;;;;;;;;;-140.72;100.00;52892.09;5028817;28;20295;-70
2023/04/17 04:24:02;;;;;;;;;;;;;;;-140.72;100.00;52930.66;5027380;28;19945;-70
2023/04/17 04:26:28;;;;;;;;;;;;;;;-140.72;100.00;52914.41;5028351;28;19917;-70
2023/04/17 04:28:53;;;;;;;;;;;;;;;-140.72;100.00;52930.66;5038954;28;19923;-70
2023/04/17 04:31:18;;;;;;;;;;;;;;;-140.72;100.00;52906.28;5027546;28;19980;-71
2023/04/17 04:33:44;;;;;;;;;;;;;;;-140.72;100.00;52934.69;5028356;28;19949;-72
2023/04/17 04:36:28;;;;;;;;;;;;;;;-140.72;100.00;52912.38;5030582;28;20019;-70
2023/04/17 04:38:58;;;;;;;;;;;;;;;-140.72;100.00;52902.22;5018743;28;20008;-70
2023/04/17 04:41:24;;;;;;;;;;;;;;;-140.72;100.00;52890.06;5025591;28;19917;-71
2023/04/17 04:43:49;;;;;;;;;;;;;;;-140.72;100.00;52902.22;5025357;28;19974;-70
2023/04/17 04:46:14;;;;;;;;;;;;;;;-140.72;100.00;52963.13;5027238;28;20440;-71
2023/04/17 04:48:39;;;;;;;;;;;;;;;-140.72;100.00;52922.53;5027249;28;19946;-70
2023/04/17 04:51:05;;;;;;;;;;;;;;;-140.72;100.00;52926.59;5034064;28;19928;-70
2023/04/17 04:53:30;;;;;;;;;;;;;;;-140.72;100.00;52934.69;5044046;28;19997;-71
2023/04/17 04:55:55;;;;;;;;;;;;;;;-140.72;100.00;52936.72;5023648;28;20008;-70
2023/04/17 04:58:20;;;;;;;;;;;;;;;-140.72;100.00;52918.47;5033156;28;20355;-71
2023/04/17 05:00:45;;;;;;;;;;;;;;;-140.72;100.00;52910.34;5029863;28;19921;-70
2023/04/17 05:03:11;;;;;;;;;;;;;;;-140.72;100.00;52914.41;5023970;28;19925;-70
2023/04/17 05:05:37;;;;;;;;;;;;;;;-140.72;100.00;52900.19;5029152;28;19926;-71
2023/04/17 05:08:02;;;;;;;;;;;;;;;-140.72;100.00;52898.16;5021966;28;19917;-70
2023/04/17 05:10:27;;;;;;;;;;;;;;;-140.72;100.00;52920.50;5026206;28;19917;-70
2023/04/17 05:12:52;;;;;;;;;;;;;;;-140.72;100.00;52957.03;5034803;28;19917;-70
2023/04/17 05:15:17;;;;;;;;;;;;;;;-140.72;100.00;52914.41;5017102;28;19917;-71
2023/04/17 05:17:43;;;;;;;;;;;;;;;-140.72;100.00;52934.69;5028666;28;20019;-71
2023/04/17 05:20:09;;;;;;;;;;;;;;;-140.72;100.00;52963.13;5028276;28;20020;-73
2023/04/17 05:22:57;;;;;;;;;;;;;;;-140.72;100.00;52934.69;5030377;28;19917;-72
2023/04/17 05:25:22;;;;;;;;;;;;;;;-140.72;100.00;52902.22;5030529;28;20016;-71
2023/04/17 05:27:47;;;;;;;;;;;;;;;-140.72;100.00;52944.84;5028275;28;20012;-72
2023/04/17 05:30:13;;;;;;;;;;;;;;;-140.72;100.00;52928.63;5025046;28;19974;-73
2023/04/17 05:32:38;;;;;;;;;;;;;;;-140.72;100.00;52918.47;5027698;28;19921;-71
2023/04/17 05:35:16;;;;;;;;;;;;;;;-140.72;100.00;52908.31;5027910;28;20363;-76
2023/04/17 05:37:43;;;;;;;;;;;;;;;-140.72;100.00;52888.03;5030507;28;19942;-72
2023/04/17 05:40:09;;;;;;;;;;;;;;;-140.72;100.00;52926.59;5031548;28;19924;-73
2023/04/17 05:42:34;;;;;;;;;;;;;;;-140.72;100.00;52928.63;5027441;28;20379;-73
2023/04/17 05:44:59;;;;;;;;;;;;;;;-140.72;100.00;52934.69;5029548;28;20401;-73
2023/04/17 05:47:24;;;;;;;;;;;;;;;-140.72;100.00;52902.22;5033619;27;19947;-73
2023/04/17 05:49:56;;;;;;;;;;;;;;;-140.72;100.00;52922.53;5035971;28;19921;-71
2023/04/17 05:52:21;;;;;;;;;;;;;;;-140.72;100.00;52948.91;5030352;28;19964;-71
2023/04/17 05:54:46;;;;;;;;;;;;;;;-140.72;100.00;52922.53;5032084;28;19964;-71
2023/04/17 05:57:12;;;;;;;;;;;;;;;-140.72;100.00;52926.59;5031247;28;20295;-70
2023/04/17 05:59:37;;;;;;;;;;;;;;;-140.72;100.00;52888.03;5032052;28;20291;-70
2023/04/17 06:02:03;;;;;;;;;;;;;;;-140.72;100.00;52942.81;5032167;28;19917;-74
2023/04/17 06:04:28;;;;;;;;;;;;;;;-140.72;100.00;52898.16;5027421;28;19962;-71
2023/04/17 06:06:54;;;;;;;;;;;;;;;-140.72;100.00;52910.34;5032517;28;19927;-75
2023/04/17 06:09:19;;;;;;;;;;;;;;;-140.72;100.00;52869.75;5031397;28;19921;-71
2023/04/17 06:11:44;;;;;;;;;;;;;;;-140.72;100.00;52879.91;5025826;28;19924;-70
2023/04/17 06:14:09;;;;;;;;;;;;;;;-140.72;100.00;52888.03;5029818;28;19917;-71
2023/04/17 06:16:34;;;;;;;;;;;;;;;-140.72;100.00;52881.94;5018623;28;19917;-71
2023/04/17 06:19:00;;;;;;;;;;;;;;;-140.72;100.00;52869.75;5032458;28;19960;-71
2023/04/17 06:21:25;;;;;;;;;;;;;;;-140.72;100.00;52883.97;5032003;28;20043;-71
2023/04/17 06:23:50;;;;;;;;;;;;;;;-140.72;100.00;52902.22;5030831;28;19925;-71
2023/04/17 06:26:16;;;;;;;;;;;;;;;-140.72;100.00;52904.25;5028607;28;19924;-71
2023/04/17 06:28:41;;;;;;;;;;;;;;;-140.72;100.00;52855.56;5012331;28;19971;-71
2023/04/17 06:31:06;;;;;;;;;;;;;;;-140.72;100.00;52888.03;5029003;28;19921;-71
2023/04/17 06:33:31;;;;;;;;;;;;;;;-140.72;100.00;52898.16;5027355;28;20341;-71
2023/04/17 06:35:57;;;;;;;;;;;;;;;-140.72;100.00;52910.34;5027304;28;19924;-70
2023/04/17 06:38:22;;;;;;;;;;;;;;;-140.72;100.00;52881.94;5037472;28;19921;-71
2023/04/17 06:40:47;;;;;;;;;;;;;;;-140.72;100.00;52879.91;5031151;28;19921;-71
2023/04/17 06:43:14;;;;;;;;;;;;;;;-140.72;100.00;52924.56;5020377;28;20389;-72
2023/04/17 06:45:41;;;;;;;;;;;;;;;-140.72;100.00;52922.53;5025596;28;19966;-73
2023/04/17 06:48:07;;;;;;;;;;;;;;;-140.72;100.00;52853.53;5022853;28;19917;-73
2023/04/17 06:50:32;;;;;;;;;;;;;;;-140.72;100.00;52892.09;5027056;28;19928;-72
2023/04/17 06:52:57;;;;;;;;;;;;;;;-140.72;100.00;52918.47;5024951;28;19917;-71
2023/04/17 06:55:22;;;;;;;;;;;;;;;-140.72;100.00;52910.34;5018157;28;19921;-71
2023/04/17 06:57:47;;;;;;;;;;;;;;;-140.72;100.00;52886.00;5012721;28;19932;-71
2023/04/17 07:00:13;;;;;;;;;;;;;;;-140.72;100.00;52888.03;5034264;28;19940;-70
2023/04/17 07:02:38;;;;;;;;;;;;;;;-140.72;100.00;52900.19;5030939;28;22165;-71
2023/04/17 07:05:06;;;;;;;;;;;;;;;-140.72;100.00;52853.53;5031511;28;20363;-71
2023/04/17 07:07:33;;;;;;;;;;;;;;;-140.72;100.00;52853.53;5027111;28;20415;-71
2023/04/17 07:09:58;;;;;;;;;;;;;;;-140.72;100.00;52869.75;5022215;28;20016;-71
2023/04/17 07:12:23;;;;;;;;;;;;;;;-140.72;100.00;52869.75;5030693;28;19949;-71
2023/04/17 07:14:49;;;;;;;;;;;;;;;-140.72;100.00;52900.19;5016001;28;19965;-71
2023/04/17 07:17:14;;;;;;;;;;;;;;;-140.72;100.00;52841.34;5020921;28;19917;-70
2023/04/17 07:19:40;;;;;;;;;;;;;;;-140.72;100.00;52853.53;5030906;28;19924;-71
2023/04/17 07:22:05;;;;;;;;;;;;;;;-140.72;100.00;52855.56;5014022;28;20265;-71
2023/04/17 07:24:33;;;;;;;;;;;;;;;-140.72;100.00;52857.59;5022606;28;19966;-71
2023/04/17 07:27:00;;;;;;;;;;;;;;;-140.72;100.00;52855.56;5028013;28;19986;-71
2023/04/17 07:29:25;;;;;;;;;;;;;;;-140.72;100.00;52845.41;5021011;28;20029;-70
2023/04/17 07:31:50;;;;;;;;;;;;;;;-140.72;100.00;52851.50;5031568;28;20382;-71
2023/04/17 07:34:16;;;;;;;;;;;;;;;-140.72;100.00;52855.56;5018628;28;19944;-73
2023/04/17 07:36:41;;;;;;;;;;;;;;;-140.72;100.00;52861.66;5029638;28;20302;-72
2023/04/17 07:39:06;;;;;;;;;;;;;;;-140.72;100.00;52857.59;5027238;28;20375;-72
2023/04/17 07:41:32;;;;;;;;;;;;;;;-140.72;100.00;52861.66;5025990;28;19986;-72
2023/04/17 07:43:57;;;;;;;;;;;;;;;-140.72;100.00;52861.66;5024251;28;19940;-71
2023/04/17 07:46:22;;;;;;;;;;;;;;;-140.72;100.00;52851.50;5027318;28;19921;-71
2023/04/17 07:48:47;;;;;;;;;;;;;;;-140.72;100.00;52804.81;5028318;28;19920;-70
2023/04/17 07:51:13;;;;;;;;;;;;;;;-140.72;100.00;52865.69;5025386;28;19917;-70
2023/04/17 07:53:38;;;;;;;;;;;;;;;-140.72;100.00;52841.34;5015787;28;19964;-70
2023/04/17 07:56:04;;;;;;;;;;;;;;;-140.72;100.00;52867.72;5030485;28;19961;-70
2023/04/17 07:58:30;;;;;;;;;;;;;;;-140.72;100.00;52835.25;5022692;28;19976;-69
2023/04/17 08:00:56;;;;;;;;;;;;;;;-140.72;100.00;52853.53;5026615;28;20011;-69
2023/04/17 08:03:22;;;;;;;;;;;;;;;-140.72;100.00;52875.84;5030887;28;20020;-69
2023/04/17 08:05:48;;;;;;;;;;;;;;;-140.72;100.00;52871.78;5028291;28;19925;-70
2023/04/17 08:08:14;;;;;;;;;;;;;;;-140.72;100.00;52863.66;5020619;28;19959;-71
2023/04/17 08:10:39;;;;;;;;;;;;;;;-140.72;100.00;52855.56;5016147;28;19924;-72
2023/04/17 08:13:04;;;;;;;;;;;;;;;-140.72;100.00;52859.63;5034116;28;19949;-72
2023/04/17 08:15:30;;;;;;;;;;;;;;;-140.72;100.00;52890.06;5034147;28;19932;-73
2023/04/17 08:17:56;;;;;;;;;;;;;;;-140.72;100.00;52883.97;5021345;28;19917;-72
2023/04/17 08:20:22;;;;;;;;;;;;;;;-140.72;100.00;52837.28;5026686;28;19949;-71
2023/04/17 08:22:47;;;;;;;;;;;;;;;-140.72;100.00;52859.63;5027467;28;19917;-71
2023/04/17 08:25:13;;;;;;;;;;;;;;;-140.72;100.00;52898.16;5032511;28;19917;-71
2023/04/17 08:27:39;;;;;;;;;;;;;;;-140.72;100.00;52804.81;5026767;28;19940;-71
2023/04/17 08:30:05;;;;;;;;;;;;;;;-140.72;100.00;52812.94;5014495;28;19918;-69
2023/04/17 08:32:38;;;;;;;;;;;;;;;-140.72;100.00;52800.75;5016166;28;19952;-69
2023/04/17 08:35:03;;;;;;;;;;;;;;;-140.72;100.00;52792.66;5023435;28;20333;-70
2023/04/17 08:37:29;;;;;;;;;;;;;;;-140.72;100.00;52849.47;5029704;28;19977;-70
2023/04/17 08:39:55;;;;;;;;;;;;;;;-140.72;100.00;52845.41;5024851;28;19917;-70
2023/04/17 08:42:21;;;;;;;;;;;;;;;-140.72;100.00;52790.63;5028526;28;19921;-70
2023/04/17 08:44:46;;;;;;;;;;;;;;;-140.72;100.00;52812.94;5018317;28;19918;-69
2023/04/17 08:47:11;;;;;;;;;;;;;;;-140.72;100.00;52837.28;5015812;28;19951;-70
2023/04/17 08:49:38;;;;;;;;;;;;;;;-140.72;100.00;52788.59;5020818;28;19995;-70
2023/04/17 08:52:04;;;;;;;;;;;;;;;-140.72;100.00;52829.19;5034679;28;19917;-70
2023/04/17 08:54:34;;;;;;;;;;;;;;;-140.72;100.00;52790.63;5025880;28;19921;-69
2023/04/17 08:57:02;;;;;;;;;;;;;;;-140.72;100.00;52814.97;5024676;28;19918;-70
2023/04/17 08:59:28;;;;;;;;;;;;;;;-140.72;100.00;52776.41;5026938;28;19924;-70
2023/04/17 09:01:59;;;;;;;;;;;;;;;-140.72;100.00;52796.72;5023744;28;19917;-70
2023/04/17 09:04:41;;;;;;;;;;;;;;;-140.72;100.00;52794.69;5016902;28;20360;-70
2023/04/17 09:07:08;;;;;;;;;;;;;;;-140.72;100.00;52827.16;5024802;28;19917;-70
2023/04/17 09:09:49;;;;;;;;;;;;;;;-140.72;100.00;52790.63;5020142;28;20324;-70
2023/04/17 09:12:15;;;;;;;;;;;;;;;-140.72;100.00;52827.16;5030859;28;19927;-70
2023/04/17 09:14:40;;;;;;;;;;;;;;;-140.72;100.00;52788.59;5024401;28;20020;-70
2023/04/17 09:17:05;;;;;;;;;;;;;;;-140.72;100.00;52812.94;5021329;28;19917;-69
2023/04/17 09:19:31;;;;;;;;;;;;;;;-140.72;100.00;52798.72;5027038;28;19922;-69
2023/04/17 09:21:56;;;;;;;;;;;;;;;-140.72;100.00;52827.16;5018440;28;20366;-70
2023/04/17 09:24:31;;;;;;;;;;;;;;;-140.72;100.00;52804.81;5021724;28;19925;-70
2023/04/17 09:27:16;;;;;;;;;;;;;;;-140.72;100.00;52800.75;5020131;28;19918;-70
2023/04/17 09:30:17;;;;;;;;;;;;;;;-140.72;100.00;52778.44;5029686;28;20287;-70
2023/04/17 09:32:42;;;;;;;;;;;;;;;-140.72;100.00;52741.91;5107810;28;20776;-70
2023/04/17 09:35:08;;;;;;;;;;;;;;;-140.72;100.00;52776.41;5028348;28;19917;-70
2023/04/17 09:37:49;;;;;;;;;;;;;;;-140.72;100.00;52743.94;5030070;28;19925;-69
2023/04/17 09:40:15;;;;;;;;;;;;;;;-140.72;100.00;52707.41;5029714;28;19972;-70
2023/04/17 09:42:57;;;;;;;;;;;;;;;-140.72;100.00;52719.59;5024937;28;19957;-70
2023/04/17 09:45:23;;;;;;;;;;;;;;;-140.72;100.00;52731.75;5030290;28;19921;-70
2023/04/17 09:47:49;;;;;;;;;;;;;;;-140.72;100.00;52693.22;5029115;28;19917;-71
2023/04/17 09:50:16;;;;;;;;;;;;;;;-140.72;100.00;52660.75;5032595;28;19924;-71
2023/04/17 09:52:42;;;;;;;;;;;;;;;-140.72;63.44;52729.75;5032417;28;19921;-73
2023/04/17 09:55:09;;;;;;;;;;;;;;;-140.72;25.33;52693.22;5032125;28;19917;-70
2023/04/17 09:57:36;;;;;;;;;;;;;;;-140.72;0.00;52687.13;5018111;28;19924;-69
2023/04/17 10:00:04;;;;;;;;;;;;;;;-140.72;0.00;52636.38;5025073;28;19921;-69
2023/04/17 10:02:30;;;;;;;;;;;;;;;-140.72;0.00;52715.53;5026236;28;20004;-69
2023/04/17 10:04:55;;;;;;;;;;;;;;;-140.72;0.00;52681.03;5031367;28;20009;-70
2023/04/17 10:07:21;;;;;;;;;;;;;;;-140.72;0.00;52612.03;5031038;28;20273;-69
2023/04/17 10:09:46;;;;;;;;;;;;;;;-140.72;0.00;52703.34;5031109;28;19918;-69
2023/04/17 10:12:15;;;;;;;;;;;;;;;-140.72;0.00;52681.03;5032428;28;20382;-69
2023/04/17 10:14:45;;;;;;;;;;;;;;;-140.72;0.00;52654.66;5027148;28;19923;-69
2023/04/17 10:17:33;;;;;;;;;;;;;;;-140.72;0.00;52626.25;5030814;28;19956;-69
2023/04/17 10:20:16;;;;;;;;;;;;;;;-140.72;0.00;52668.84;5031470;28;19952;-69
2023/04/17 10:22:48;;;;;;;;;;;;;;;-140.72;0.00;52670.88;5026370;28;19921;-69
2023/04/17 10:25:13;;;;;;;;;;;;;;;-140.72;0.00;52725.69;5012934;28;19921;-70
2023/04/17 10:27:41;;;;;;;;;;;;;;;-140.72;0.00;52565.38;5027947;28;20117;-70
2023/04/17 10:30:11;;;;;;;;;;;;;;;-140.72;0.00;52504.50;5030875;28;19924;-72
2023/04/17 10:32:37;;;;;;;;;;;;;;;-140.72;0.00;52445.66;5030872;28;19918;-70
2023/04/17 10:35:14;;;;;;;;;;;;;;;-140.72;0.00;52593.78;5027072;28;19971;-70
2023/04/17 10:37:46;;;;;;;;;;;;;;;-140.72;0.00;52634.38;5030598;28;19917;-70
2023/04/17 10:40:16;;;;;;;;;;;;;;;-140.72;0.00;52622.19;5020916;28;19957;-70
2023/04/17 10:43:00;;;;;;;;;;;;;;;-140.72;0.00;52585.66;5018272;28;19970;-70
2023/04/17 10:45:45;;;;;;;;;;;;;;;-140.72;0.00;52482.16;5026017;27;19918;-70
2023/04/17 10:48:18;;;;;;;;;;;;;;;-140.72;0.00;52384.78;5019305;28;20282;-70
2023/04/17 10:50:43;;;;;;;;;;;;;;;-140.72;0.00;52388.84;5025402;28;19918;-70
2023/04/17 10:53:28;;;;;;;;;;;;;;;-140.72;0.00;52536.97;5013298;28;19971;-69
2023/04/17 10:55:55;;;;;;;;;;;;;;;-140.72;0.00;52504.50;5022318;28;19970;-70
2023/04/17 10:58:21;;;;;;;;;;;;;;;-140.72;0.00;52378.69;5030350;28;19921;-71
2023/04/17 11:00:50;;;;;;;;;;;;;;;-140.72;0.00;52374.63;5030333;28;19918;-70
2023/04/17 11:03:15;;;;;;;;;;;;;;;-140.72;0.00;52419.28;5025424;28;19963;-70
2023/04/17 11:05:44;;;;;;;;;;;;;;;-140.72;0.00;52504.50;5024230;28;19957;-70
2023/04/17 11:08:10;;;;;;;;;;;;;;;-140.72;0.00;52439.56;5028581;28;19922;-70
2023/04/17 11:10:36;;;;;;;;;;;;;;;-140.72;0.00;52506.53;5020045;28;19936;-70
2023/04/17 11:13:01;;;;;;;;;;;;;;;-140.72;0.00;52378.69;5025045;28;20011;-70
2023/04/17 11:15:31;;;;;;;;;;;;;;;-140.72;0.00;52413.19;5019480;28;19940;-70
2023/04/17 11:17:57;;;;;;;;;;;;;;;-140.72;0.00;52360.44;5028275;28;19960;-70
2023/04/17 11:20:23;;;;;;;;;;;;;;;-140.72;0.00;52348.25;5021031;28;19921;-70
2023/04/17 11:22:49;;;;;;;;;;;;;;;-140.72;0.00;52305.63;5019135;28;19917;-70
2023/04/17 11:25:18;;;;;;;;;;;;;;;-140.72;0.00;52275.19;5026725;28;19917;-70
2023/04/17 11:27:43;;;;;;;;;;;;;;;-140.72;0.00;52277.22;5028988;28;19970;-71
2023/04/17 11:30:08;;;;;;;;;;;;;;;-140.72;0.00;52279.25;5021200;28;19917;-71
2023/04/17 11:32:36;;;;;;;;;;;;;;;-140.72;0.00;52263.03;5024800;28;19966;-70
2023/04/17 11:35:03;;;;;;;;;;;;;;;-140.72;0.00;52192.00;5032618;28;19964;-70
2023/04/17 11:37:28;;;;;;;;;;;;;;;-140.72;0.00;52240.72;5028406;28;19917;-70
2023/04/17 11:40:00;;;;;;;;;;;;;;;-140.72;0.00;52200.13;5030973;28;19917;-70
2023/04/17 11:42:26;;;;;;;;;;;;;;;-140.72;0.00;52151.44;5030796;28;19925;-70
2023/04/17 11:44:51;;;;;;;;;;;;;;;-140.72;0.00;52212.31;5027843;28;20008;-70
2023/04/17 11:47:18;;;;;;;;;;;;;;;-140.72;0.00;52232.59;5014263;28;20016;-70
2023/04/17 11:49:45;;;;;;;;;;;;;;;-140.72;0.00;52224.47;5026732;28;19925;-70
2023/04/17 11:52:10;;;;;;;;;;;;;;;-140.72;0.00;52224.47;5031005;28;19917;-72
2023/04/17 11:54:36;;;;;;;;;;;;;;;-140.72;0.00;52194.03;5017577;28;19937;-71
2023/04/17 11:57:03;;;;;;;;;;;;;;;-140.72;0.00;52187.97;5015776;28;19917;-71
2023/04/17 11:59:32;;;;;;;;;;;;;;;-140.72;0.00;52163.59;5011254;28;19996;-71
2023/04/17 12:02:00;;;;;;;;;;;;;;;-140.72;0.00;52147.38;5028175;28;20387;-71
2023/04/17 12:04:28;;;;;;;;;;;;;;;-140.72;0.00;52086.50;5025002;28;19922;-71
2023/04/17 12:06:53;;;;;;;;;;;;;;;-140.72;0.00;52096.66;5031042;28;19962;-71
2023/04/17 12:09:20;;;;;;;;;;;;;;;-140.72;0.00;52074.34;5012935;28;20334;-71
2023/04/17 12:11:45;;;;;;;;;;;;;;;-140.72;0.00;52110.84;5022680;28;20006;-71
2023/04/17 12:14:10;;;;;;;;;;;;;;;-140.72;0.00;52072.31;5026892;28;19964;-71
2023/04/17 12:16:36;;;;;;;;;;;;;;;-140.72;0.00;52037.81;5030537;28;19970;-71
2023/04/17 12:19:01;;;;;;;;;;;;;;;-140.72;0.00;52027.66;5028602;28;20323;-71
2023/04/17 12:21:26;;;;;;;;;;;;;;;-140.72;0.00;52019.56;5017526;28;20004;-71